Time;durP1;ratioP1;P1;durP2;ratioP2;P2;SDS_P1;SDS_P2;PMS_P1;PMS_P2;Temp;Humidity;BMP_temperature;BMP_pressure;BME280_temperature;BME280_humidity;BME280_pressure;Samples;Min_cycle;Max_cycle;Signal;HPM_P1;HPM_P2
2023/01/05 00:06:41;;;;;;;1.60;0.70;;;;;13.80;99339.00;;;;16336254;29;20300;-49
2023/01/05 00:23:06;;;;;;;0.50;0.50;;;;;13.90;99318.00;;;;16351261;28;20741;-49
2023/01/05 00:31:08;;;;;;;1.13;0.50;;;;;14.00;99316.00;;;;16365136;28;20301;-49
2023/01/05 00:39:12;;;;;;;0.70;0.70;;;;;14.10;99312.00;;;;16352173;28;20301;-49
2023/01/05 00:47:15;;;;;;;0.60;0.60;;;;;14.00;99315.00;;;;16348501;29;20728;-48
2023/01/05 00:55:18;;;;;;;0.73;0.50;;;;;14.30;99311.00;;;;16371927;28;20781;-49
2023/01/05 01:03:21;;;;;;;0.63;0.50;;;;;14.10;99322.00;;;;16342208;28;20252;-49
2023/01/05 01:11:25;;;;;;;0.50;0.50;;;;;14.20;99324.00;;;;16334213;29;20258;-49
2023/01/05 01:19:28;;;;;;;1.50;0.60;;;;;13.90;99329.00;;;;16326541;29;20234;-49
2023/01/05 01:27:32;;;;;;;0.40;0.40;;;;;14.20;99324.00;;;;16331844;29;20210;-49
2023/01/05 01:35:38;;;;;;;1.80;0.37;;;;;14.20;99314.00;;;;16333939;29;20292;-47
2023/01/05 01:43:44;;;;;;;0.30;0.27;;;;;14.20;99299.00;;;;16330519;29;20244;-49
2023/01/05 01:51:49;;;;;;;0.40;0.40;;;;;14.20;99293.00;;;;16334362;29;20257;-48
2023/01/05 01:59:53;;;;;;;0.50;0.50;;;;;14.10;99299.00;;;;16332568;29;20308;-48
2023/01/05 02:07:55;;;;;;;0.40;0.30;;;;;14.10;99289.00;;;;16333189;29;20692;-48
2023/01/05 02:16:04;;;;;;;0.57;0.57;;;;;14.10;99280.00;;;;16328824;29;20230;-48
2023/01/05 02:24:40;;;;;;;0.40;0.30;;;;;14.10;99281.00;;;;16345066;28;20244;-49
2023/01/05 02:32:50;;;;;;;0.80;0.40;;;;;14.10;99267.00;;;;16328173;29;20222;-49
2023/01/05 02:40:57;;;;;;;0.47;0.47;;;;;14.00;99262.00;;;;16328831;29;20779;-49
2023/01/05 02:49:02;;;;;;;1.33;0.30;;;;;14.00;99249.00;;;;16328676;29;20305;-49
2023/01/05 02:57:09;;;;;;;0.40;0.40;;;;;14.10;99258.00;;;;16328375;29;20296;-48
2023/01/05 03:05:18;;;;;;;0.40;0.40;;;;;14.20;99254.00;;;;16327127;29;20214;-49
2023/01/05 03:38:38;;;;;;;0.53;0.40;;;;;14.20;99255.00;;;;16351155;29;20702;-49
2023/01/05 03:46:42;;;;;;;0.43;0.43;;;;;14.20;99246.00;;;;16364886;28;20793;-49
2023/01/05 03:54:47;;;;;;;0.53;0.53;;;;;14.40;99250.00;;;;16374249;28;20218;-48
2023/01/05 04:02:50;;;;;;;0.60;0.60;;;;;14.60;99253.00;;;;16358971;28;20234;-49
2023/01/05 04:10:57;;;;;;;5.40;4.47;;;;;14.80;99256.00;;;;16373834;28;20225;-48
2023/01/05 04:19:00;;;;;;;2.73;2.53;;;;;14.80;99250.00;;;;16360448;29;20241;-49
2023/01/05 04:27:04;;;;;;;1.60;1.50;;;;;14.60;99236.00;;;;16374926;29;20244;-49
2023/01/05 04:35:07;;;;;;;1.40;1.30;;;;;14.50;99239.00;;;;16353346;28;20226;-49
2023/01/05 04:43:11;;;;;;;0.70;0.70;;;;;14.80;99229.00;;;;16472888;23;20326;-48
2023/01/05 04:51:14;;;;;;;1.00;0.90;;;;;14.60;99239.00;;;;16580508;28;20702;-48
2023/01/05 04:59:18;;;;;;;1.70;0.70;;;;;14.80;99239.00;;;;16544246;28;20227;-49
2023/01/05 05:07:22;;;;;;;0.80;0.63;;;;;15.20;99242.00;;;;16536914;28;20594;-50
2023/01/05 05:15:27;;;;;;;0.53;0.53;;;;;14.90;99239.00;;;;16549770;28;20242;-49
2023/01/05 05:23:30;;;;;;;0.40;0.40;;;;;14.50;99260.00;;;;16539098;28;20774;-49
2023/01/05 05:31:36;;;;;;;0.40;0.37;;;;;14.40;99262.00;;;;16543831;28;20227;-47
2023/01/05 05:39:38;;;;;;;0.63;0.60;;;;;14.70;99277.00;;;;16564760;28;20226;-49
2023/01/05 05:47:43;;;;;;;0.50;0.50;;;;;14.00;99320.00;;;;16528797;28;20195;-49
2023/01/05 05:55:49;;;;;;;0.50;0.43;;;;;14.00;99330.00;;;;16557473;28;20275;-50
2023/01/05 06:03:53;;;;;;;1.27;0.80;;;;;14.30;99339.00;;;;16532120;28;20240;-50
2023/01/05 06:11:55;;;;;;;2.20;2.10;;;;;14.60;99354.00;;;;16552297;28;20227;-49
2023/01/05 06:19:59;;;;;;;1.63;1.20;;;;;14.50;99360.00;;;;16525108;28;20219;-48
2023/01/05 06:28:02;;;;;;;0.50;0.50;;;;;13.60;99380.00;;;;16533103;28;20232;-46
2023/01/05 06:36:06;;;;;;;0.87;0.57;;;;;13.40;99407.00;;;;16523076;28;20227;-49
2023/01/05 06:44:08;;;;;;;1.07;0.57;;;;;13.10;99427.00;;;;16534455;28;20305;-48
2023/01/05 06:52:12;;;;;;;3.77;1.17;;;;;13.10;99428.00;;;;16526125;28;20215;-49
2023/01/05 07:00:15;;;;;;;1.77;0.83;;;;;16.70;99403.00;;;;16529308;28;20222;-44
2023/01/05 07:08:19;;;;;;;4.73;0.90;;;;;15.90;99417.00;;;;16514634;28;20196;-46
2023/01/05 07:16:21;;;;;;;2.63;0.93;;;;;16.40;99419.00;;;;16510935;28;20730;-45
2023/01/05 07:24:25;;;;;;;8.90;1.20;;;;;17.60;99413.00;;;;16520438;28;20314;-44
2023/01/05 07:32:28;;;;;;;2.40;1.13;;;;;17.00;99429.00;;;;16516195;28;20216;-50
2023/01/05 07:40:31;;;;;;;4.93;4.63;;;;;14.60;99446.00;;;;16511367;28;20223;-50
2023/01/05 07:48:34;;;;;;;3.23;2.10;;;;;13.80;99458.00;;;;16511430;28;20200;-47
2023/01/05 07:56:38;;;;;;;1.90;1.20;;;;;14.20;99467.00;;;;16510906;28;20228;-50
2023/01/05 08:04:40;;;;;;;1.27;1.00;;;;;13.70;99480.00;;;;16509679;28;20264;-48
2023/01/05 08:21:03;;;;;;;9.00;2.80;;;;;13.60;99501.00;;;;16530115;28;20314;-50
2023/01/05 08:29:06;;;;;;;5.40;2.07;;;;;13.70;99498.00;;;;16525934;28;20203;-49
2023/01/05 08:37:09;;;;;;;2.33;1.60;;;;;13.90;99506.00;;;;16528529;28;20227;-50
2023/01/05 08:45:13;;;;;;;2.60;1.80;;;;;13.80;99521.00;;;;16525654;28;20240;-51
2023/01/05 08:53:16;;;;;;;2.93;1.60;;;;;13.90;99526.00;;;;16522728;28;20219;-52
2023/01/05 09:01:20;;;;;;;2.83;1.40;;;;;14.10;99524.00;;;;16526000;28;20722;-48
2023/01/05 09:09:24;;;;;;;3.20;1.87;;;;;13.60;99545.00;;;;16527347;28;20202;-49
2023/01/05 09:17:27;;;;;;;8.20;1.77;;;;;13.80;99568.00;;;;16524024;28;20216;-51
2023/01/05 09:25:30;;;;;;;41.63;38.13;;;;;13.70;99573.00;;;;16514658;28;20221;-48
2023/01/05 09:33:33;;;;;;;8.33;3.07;;;;;13.70;99589.00;;;;16523679;28;20223;-50
2023/01/05 09:41:38;;;;;;;5.53;1.97;;;;;14.00;99596.00;;;;16519970;28;20230;-49
2023/01/05 09:49:42;;;;;;;8.10;2.70;;;;;13.70;99591.00;;;;16526285;28;20195;-49
2023/01/05 09:57:52;;;;;;;6.03;2.40;;;;;13.80;99600.00;;;;16525156;28;20196;-50
2023/01/05 10:05:56;;;;;;;10.77;2.50;;;;;13.80;99601.00;;;;16518235;28;20216;-50
2023/01/05 10:14:01;;;;;;;10.30;3.00;;;;;14.00;99600.00;;;;16517265;28;20212;-50
2023/01/05 10:22:16;;;;;;;10.63;3.60;;;;;14.20;99598.00;;;;16548139;28;20805;-49
2023/01/05 10:30:23;;;;;;;8.43;2.60;;;;;14.30;99597.00;;;;16518999;28;20339;-50
2023/01/05 10:38:40;;;;;;;12.40;3.50;;;;;14.60;99579.00;;;;16521601;28;20240;-49
2023/01/05 10:46:46;;;;;;;9.00;2.87;;;;;14.00;99583.00;;;;16517409;28;20860;-49
2023/01/05 10:54:52;;;;;;;4.30;1.63;;;;;14.00;99577.00;;;;16519131;28;20237;-49
2023/01/05 11:03:03;;;;;;;9.33;2.90;;;;;14.20;99578.00;;;;16518020;28;20231;-50
2023/01/05 11:11:08;;;;;;;8.90;3.13;;;;;14.20;99565.00;;;;16518220;28;20719;-50
2023/01/05 11:19:16;;;;;;;5.90;2.33;;;;;14.30;99570.00;;;;16514953;28;20299;-49
2023/01/05 11:27:25;;;;;;;11.03;2.40;;;;;14.20;99588.00;;;;16546883;28;20233;-50
2023/01/05 11:35:31;;;;;;;14.23;3.73;;;;;14.80;99572.00;;;;16530816;28;20739;-49
2023/01/05 11:43:36;;;;;;;6.60;1.57;;;;;14.30;99579.00;;;;16518437;28;20248;-49
2023/01/05 11:51:40;;;;;;;7.90;3.03;;;;;14.30;99568.00;;;;16511630;28;20228;-50
2023/01/05 11:59:44;;;;;;;11.83;2.40;;;;;14.30;99577.00;;;;16515205;28;20227;-49
2023/01/05 12:07:49;;;;;;;9.00;2.60;;;;;14.50;99566.00;;;;16517593;28;20215;-50
2023/01/05 12:16:14;;;;;;;11.63;4.33;;;;;14.50;99565.00;;;;16516352;28;20230;-51
2023/01/05 12:24:34;;;;;;;7.37;3.40;;;;;14.50;99572.00;;;;16533868;28;20234;-49
2023/01/05 12:32:58;;;;;;;7.10;3.27;;;;;14.60;99572.00;;;;16525691;28;20216;-48
2023/01/05 12:41:19;;;;;;;6.50;2.67;;;;;14.40;99580.00;;;;16514425;28;20223;-50
2023/01/05 12:49:27;;;;;;;10.17;3.37;;;;;14.70;99575.00;;;;16516466;28;20196;-49
2023/01/05 12:57:33;;;;;;;8.00;2.87;;;;;14.40;99588.00;;;;16515815;28;20763;-49
2023/01/05 13:05:41;;;;;;;8.60;4.57;;;;;14.60;99586.00;;;;16514136;28;20236;-49
2023/01/05 13:13:46;;;;;;;9.13;2.87;;;;;14.60;99592.00;;;;16517410;28;20733;-48
2023/01/05 13:21:52;;;;;;;6.13;2.40;;;;;14.50;99579.00;;;;16523993;28;20224;-50
2023/01/05 13:29:58;;;;;;;9.00;3.90;;;;;14.70;99581.00;;;;16518969;28;20220;-49
2023/01/05 13:38:17;;;;;;;9.80;3.00;;;;;14.90;99588.00;;;;16521990;28;20704;-49
2023/01/05 13:46:35;;;;;;;11.33;3.40;;;;;14.50;99582.00;;;;16525065;28;20590;-49
2023/01/05 13:54:43;;;;;;;10.57;2.80;;;;;14.40;99586.00;;;;16525920;28;20235;-49
2023/01/05 14:02:54;;;;;;;13.13;3.20;;;;;14.40;99599.00;;;;16519743;28;20239;-48
2023/01/05 14:11:17;;;;;;;12.53;4.57;;;;;14.30;99596.00;;;;16519381;28;20224;-49
2023/01/05 14:19:41;;;;;;;7.97;2.77;;;;;14.30;99606.00;;;;16519577;28;21077;-47
2023/01/05 14:28:23;;;;;;;8.90;3.00;;;;;14.50;99614.00;;;;16516897;28;20200;-49
2023/01/05 14:36:29;;;;;;;8.03;2.87;;;;;14.30;99628.00;;;;16521380;28;20310;-49
2023/01/05 14:44:35;;;;;;;8.87;3.03;;;;;14.40;99627.00;;;;16518140;28;20238;-48
2023/01/05 14:52:56;;;;;;;10.87;4.40;;;;;14.60;99641.00;;;;16523234;28;20219;-50
2023/01/05 15:01:02;;;;;;;11.17;5.27;;;;;14.60;99647.00;;;;16520287;28;20231;-50
2023/01/05 15:09:23;;;;;;;15.37;6.93;;;;;14.60;99650.00;;;;16507725;28;20658;-51
2023/01/05 15:17:46;;;;;;;13.10;4.43;;;;;14.50;99643.00;;;;16482446;28;20230;-47
2023/01/05 15:26:08;;;;;;;10.30;3.83;;;;;14.50;99638.00;;;;16504188;28;20970;-49
2023/01/05 15:34:21;;;;;;;14.27;3.07;;;;;14.50;99635.00;;;;16485200;28;20221;-51
2023/01/05 15:42:26;;;;;;;8.97;5.23;;;;;14.30;99637.00;;;;16496760;28;20230;-49
2023/01/05 15:50:34;;;;;;;12.00;4.17;;;;;14.40;99636.00;;;;16494418;28;20219;-50
2023/01/05 15:58:44;;;;;;;15.60;4.27;;;;;14.40;99644.00;;;;16509523;28;20279;-49
2023/01/05 16:06:50;;;;;;;11.77;4.13;;;;;14.60;99630.00;;;;16499924;28;20212;-48
2023/01/05 16:14:59;;;;;;;10.37;4.53;;;;;15.10;99644.00;;;;16467169;28;20323;-49
2023/01/05 16:23:05;;;;;;;12.33;5.83;;;;;15.60;99646.00;;;;16459709;28;20246;-49
2023/01/05 16:31:13;;;;;;;12.00;5.70;;;;;15.60;99649.00;;;;16490164;28;20220;-49
2023/01/05 16:39:24;;;;;;;13.73;6.20;;;;;14.70;99655.00;;;;16474137;28;20226;-47
2023/01/05 16:47:37;;;;;;;12.17;4.80;;;;;14.20;99662.00;;;;16455288;28;20224;-51
2023/01/05 16:55:41;;;;;;;11.33;4.87;;;;;14.20;99656.00;;;;16480519;28;20211;-49
2023/01/05 17:03:44;;;;;;;12.83;5.70;;;;;14.90;99645.00;;;;16481844;28;20240;-51
2023/01/05 17:11:48;;;;;;;11.20;5.70;;;;;14.90;99653.00;;;;16473304;28;20235;-48
2023/01/05 17:19:52;;;;;;;18.03;7.97;;;;;15.30;99653.00;;;;16478438;28;20235;-49
2023/01/05 17:27:56;;;;;;;33.33;18.87;;;;;14.80;99650.00;;;;16502024;28;20215;-48
2023/01/05 17:35:59;;;;;;;39.37;22.73;;;;;14.90;99631.00;;;;16497710;28;20224;-48
2023/01/05 17:44:02;;;;;;;7.23;3.40;;;;;14.50;99627.00;;;;16529706;28;20234;-48
2023/01/05 17:52:05;;;;;;;6.33;4.30;;;;;14.70;99630.00;;;;16495284;28;20342;-48
2023/01/05 18:00:12;;;;;;;15.87;5.97;;;;;14.70;99642.00;;;;16499295;28;20326;-48
2023/01/05 18:08:14;;;;;;;45.87;24.07;;;;;14.60;99630.00;;;;16499705;28;20212;-48
2023/01/05 18:16:18;;;;;;;20.90;10.53;;;;;14.10;99634.00;;;;16497603;28;20658;-45
2023/01/05 18:24:21;;;;;;;21.20;12.57;;;;;14.40;99635.00;;;;16491369;28;20323;-46
2023/01/05 18:32:24;;;;;;;16.27;10.20;;;;;13.40;99627.00;;;;16531010;28;20331;-48
2023/01/05 18:40:27;;;;;;;13.47;7.77;;;;;12.80;99630.00;;;;16511808;28;20231;-47
2023/01/05 18:48:31;;;;;;;12.87;7.37;;;;;12.40;99644.00;;;;16512472;28;20218;-48
2023/01/05 18:56:34;;;;;;;8.33;4.27;;;;;12.20;99640.00;;;;16500181;28;20234;-48
2023/01/05 19:04:38;;;;;;;13.00;5.90;;;;;12.60;99631.00;;;;16500878;28;20230;-48
2023/01/05 19:12:40;;;;;;;11.47;5.37;;;;;12.60;99633.00;;;;16498039;28;20562;-48
2023/01/05 19:20:44;;;;;;;11.90;5.70;;;;;13.20;99617.00;;;;16489247;28;20242;-48
2023/01/05 19:28:46;;;;;;;14.90;5.60;;;;;13.50;99614.00;;;;16489241;28;20208;-48
2023/01/05 19:36:50;;;;;;;8.00;4.80;;;;;13.90;99615.00;;;;16481751;28;20223;-48
2023/01/05 19:44:53;;;;;;;12.47;4.50;;;;;14.10;99616.00;;;;16483178;28;20231;-47
2023/01/05 19:52:56;;;;;;;13.20;8.70;;;;;14.10;99607.00;;;;16496934;28;20217;-47
2023/01/05 20:01:05;;;;;;;9.37;5.40;;;;;14.10;99604.00;;;;16496972;28;20221;-47
2023/01/05 20:09:12;;;;;;;11.37;5.70;;;;;13.30;99608.00;;;;16482233;28;20223;-48
2023/01/05 20:17:14;;;;;;;11.60;7.60;;;;;13.40;99611.00;;;;16475561;28;20286;-48
2023/01/05 20:25:18;;;;;;;9.17;4.77;;;;;13.90;99609.00;;;;16516753;28;20570;-48
2023/01/05 20:33:20;;;;;;;4.97;3.40;;;;;14.00;99614.00;;;;16507366;28;20222;-48
2023/01/05 20:41:26;;;;;;;2.67;2.10;;;;;14.40;99606.00;;;;16521685;28;20266;-48
2023/01/05 20:49:29;;;;;;;3.87;2.47;;;;;14.60;99605.00;;;;16514026;28;20208;-46
2023/01/05 20:57:33;;;;;;;2.50;2.30;;;;;14.50;99596.00;;;;16484198;28;20310;-48
2023/01/05 21:05:39;;;;;;;2.90;2.20;;;;;14.50;99602.00;;;;16507890;28;20234;-48
2023/01/05 21:13:43;;;;;;;7.33;4.70;;;;;14.40;99595.00;;;;16514046;28;20694;-47
2023/01/05 21:21:46;;;;;;;8.87;4.40;;;;;14.30;99589.00;;;;16524276;28;20250;-48
2023/01/05 21:29:50;;;;;;;4.60;3.67;;;;;14.20;99600.00;;;;16522092;28;20609;-47
2023/01/05 21:37:53;;;;;;;7.73;4.50;;;;;14.30;99598.00;;;;16523470;28;20722;-47
2023/01/05 21:45:57;;;;;;;5.30;4.57;;;;;14.20;99600.00;;;;16520522;28;20220;-47
2023/01/05 22:02:21;;;;;;;5.00;4.30;;;;;13.80;99569.00;;;;16517213;28;20235;-47
2023/01/05 22:10:23;;;;;;;3.40;2.90;;;;;13.60;99578.00;;;;16523310;28;20224;-47
2023/01/05 22:18:27;;;;;;;5.17;4.47;;;;;13.50;99561.00;;;;16524055;28;20333;-47
2023/01/05 22:26:29;;;;;;;7.07;6.30;;;;;13.50;99556.00;;;;16514244;28;20746;-47
2023/01/05 22:34:33;;;;;;;5.10;4.50;;;;;13.20;99568.00;;;;16489990;28;20233;-47
2023/01/05 22:42:35;;;;;;;5.83;5.10;;;;;13.60;99564.00;;;;16494460;28;20241;-47
2023/01/05 22:50:39;;;;;;;8.97;5.27;;;;;14.00;99569.00;;;;16501271;28;20721;-48
2023/01/05 22:58:42;;;;;;;6.63;5.47;;;;;14.00;99567.00;;;;16481758;28;20200;-48
2023/01/05 23:06:45;;;;;;;7.50;6.57;;;;;13.60;99560.00;;;;16496831;28;20310;-48
2023/01/05 23:14:48;;;;;;;5.63;4.47;;;;;14.20;99545.00;;;;16517010;28;20801;-48
2023/01/05 23:22:52;;;;;;;4.33;3.30;;;;;14.00;99539.00;;;;16517079;28;20737;-47
2023/01/05 23:30:55;;;;;;;5.43;5.00;;;;;14.10;99523.00;;;;16517146;28;20261;-47
2023/01/05 23:38:59;;;;;;;2.53;1.80;;;;;14.40;99518.00;;;;16532432;28;20724;-49
2023/01/05 23:47:01;;;;;;;6.50;3.87;;;;;14.40;99517.00;;;;16519471;28;20236;-48
2023/01/05 23:55:06;;;;;;;5.63;3.50;;;;;13.80;99506.00;;;;16515997;28;20220;-48
